createdAt,value
2018-10-21T00:01:14.539Z,97024.86
2018-10-21T00:03:43.496Z,97020.34
2018-10-21T00:06:12.462Z,97026.31
2018-10-21T00:08:40.943Z,97026.26
2018-10-21T00:11:09.466Z,97022.33
2018-10-21T00:13:37.950Z,97021.12
2018-10-21T00:16:06.427Z,97022.33
2018-10-21T00:18:46.075Z,97019.05
2018-10-21T00:21:14.703Z,97017.78
2018-10-21T00:23:43.650Z,97014.23
2018-10-21T00:26:12.154Z,97016.89
2018-10-21T00:28:40.637Z,97016.25
2018-10-21T00:31:09.182Z,97012.32
2018-10-21T00:33:37.696Z,97008.38
2018-10-21T00:36:06.960Z,97011.39
2018-10-21T00:38:35.463Z,97002.37
2018-10-21T00:41:04.006Z,97008.23
2018-10-21T00:43:32.479Z,97001.84
2018-10-21T00:46:00.995Z,97001.72
2018-10-21T00:48:29.492Z,97007.86
2018-10-21T00:50:57.988Z,97008.05
2018-10-21T00:53:26.497Z,97004.11
2018-10-21T00:55:55.139Z,97004.05
2018-10-21T00:58:23.627Z,97004.95
2018-10-21T01:00:52.157Z,97006.17
2018-10-21T01:03:20.677Z,97008.16
2018-10-21T01:05:49.207Z,97009.42
2018-10-21T01:08:17.781Z,97016.17
2018-10-21T01:10:46.354Z,97022.23
2018-10-21T01:13:14.850Z,97017.11
2018-10-21T01:15:43.354Z,97014.27
2018-10-21T01:18:11.895Z,97006.67
2018-10-21T01:20:40.377Z,96999.19
2018-10-21T01:23:08.884Z,97011.98
2018-10-21T01:25:37.362Z,97003.13
2018-10-21T01:28:06.252Z,97009.52
2018-10-21T01:30:34.776Z,96999.92
2018-10-21T01:33:03.372Z,96996.82
2018-10-21T01:35:31.815Z,97001.59
2018-10-21T01:38:00.390Z,96997.47
2018-10-21T01:40:31.799Z,96992.44
2018-10-21T01:43:00.412Z,96989.34
2018-10-21T01:45:28.902Z,96990.80
2018-10-21T01:47:58.905Z,96991.89
2018-10-21T01:50:27.444Z,96993.62
2018-10-21T01:52:57.237Z,96996.47
2018-10-21T01:55:26.218Z,96995.19
2018-10-21T01:57:55.491Z,97007.44
2018-10-21T02:00:25.046Z,97003.22
2018-10-21T02:02:54.015Z,97003.41
2018-10-21T02:05:22.922Z,97003.67
2018-10-21T02:07:51.445Z,97009.62
2018-10-21T02:10:20.331Z,97017.84
2018-10-21T02:12:48.884Z,97028.45
2018-10-21T02:15:17.373Z,97027.34
2018-10-21T02:17:45.847Z,97032.75
2018-10-21T02:20:15.167Z,97032.56
2018-10-21T02:22:44.491Z,97030.29
2018-10-21T02:25:13.026Z,97037.59
2018-10-21T02:27:42.274Z,97035.58
2018-10-21T02:30:12.870Z,97032.85
2018-10-21T02:32:41.729Z,97029.01
2018-10-21T02:35:11.461Z,97026.80
2018-10-21T02:37:40.395Z,97027.83
2018-10-21T02:41:25.602Z,97026.55
2018-10-21T02:43:54.211Z,97020.41
2018-10-21T02:46:23.583Z,97023.89
2018-10-21T02:48:53.294Z,97026.91
2018-10-21T02:51:21.812Z,97024.25
2018-10-21T02:53:50.373Z,97022.62
2018-10-21T02:56:18.929Z,97021.34
2018-10-21T02:58:48.328Z,97033.94
2018-10-21T03:01:16.827Z,97026.80
2018-10-21T03:03:46.590Z,97030.92
2018-10-21T03:06:15.097Z,97016.11
2018-10-21T03:08:44.887Z,97032.01
2018-10-21T03:11:13.387Z,97027.71
2018-10-21T03:13:41.874Z,97026.16
2018-10-21T03:16:10.399Z,97022.42
2018-10-21T03:18:38.931Z,97014.70
2018-10-21T03:21:09.355Z,97016.34
2018-10-21T03:23:37.845Z,97019.27
2018-10-21T03:26:06.355Z,97018.32
2018-10-21T03:28:34.983Z,97018.92
2018-10-21T03:31:03.708Z,96971.19
2018-10-21T03:33:32.606Z,97016.84
2018-10-21T03:36:01.116Z,97014.70
2018-10-21T03:38:29.686Z,97018.63
2018-10-21T03:40:58.226Z,97015.70
2018-10-21T03:43:26.784Z,97010.22
2018-10-21T03:45:55.359Z,97006.16
2018-10-21T03:48:23.927Z,97009.14
2018-10-21T03:50:52.447Z,97000.73
2018-10-21T03:53:20.918Z,97002.91
2018-10-21T03:55:49.518Z,97004.26
2018-10-21T03:58:18.015Z,97004.08
2018-10-21T04:00:46.548Z,97000.80
2018-10-21T04:03:15.074Z,97009.05
2018-10-21T04:05:43.586Z,97012.44
2018-10-21T04:08:12.067Z,97013.78
2018-10-21T04:10:40.832Z,97009.77
2018-10-21T04:13:09.362Z,97016.32
2018-10-21T04:15:37.882Z,97018.05
2018-10-21T04:18:13.210Z,97024.31
2018-10-21T04:20:41.698Z,97016.86
2018-10-21T04:23:28.622Z,97026.81
2018-10-21T04:25:57.173Z,97018.25
2018-10-21T04:28:25.694Z,97026.48
2018-10-21T04:30:54.623Z,97020.87
2018-10-21T04:33:53.491Z,97020.39
2018-10-21T04:36:25.021Z,97019.80
2018-10-21T04:40:08.533Z,97022.44
2018-10-21T04:42:37.051Z,97017.98
2018-10-21T04:45:06.001Z,97012.28
2018-10-21T04:47:34.566Z,97018.84
2018-10-21T04:50:03.056Z,97021.78
2018-10-21T04:52:32.351Z,97022.05
2018-10-21T04:55:05.743Z,97024.23
2018-10-21T04:57:34.774Z,97012.39
2018-10-21T05:00:03.512Z,97014.06
2018-10-21T05:02:32.475Z,97019.12
2018-10-21T05:05:01.082Z,97011.18
2018-10-21T05:07:29.629Z,97013.53
2018-10-21T05:09:58.132Z,97022.30
2018-10-21T05:12:26.570Z,97034.45
2018-10-21T05:14:55.333Z,97025.03
2018-10-21T05:17:23.826Z,97019.59
2018-10-21T05:19:52.435Z,97017.66
2018-10-21T05:22:20.949Z,97020.24
2018-10-21T05:24:49.447Z,97009.48
2018-10-21T05:27:17.932Z,97009.21
2018-10-21T05:29:46.434Z,97019.38
2018-10-21T05:32:14.915Z,97018.56
2018-10-21T05:34:43.429Z,97026.19
2018-10-21T05:37:11.918Z,97030.23
2018-10-21T05:39:40.390Z,97029.16
2018-10-21T05:42:08.879Z,97025.94
2018-10-21T05:44:37.391Z,97027.59
2018-10-21T05:47:06.225Z,97033.61
2018-10-21T05:49:34.710Z,97030.45
2018-10-21T05:52:03.436Z,97025.11
2018-10-21T05:54:31.947Z,97027.38
2018-10-21T05:57:00.466Z,97032.34
2018-10-21T05:59:29.062Z,97036.68
2018-10-21T06:01:58.470Z,97044.70
2018-10-21T06:04:34.047Z,97045.71
2018-10-21T06:07:02.567Z,97040.75
2018-10-21T06:09:31.063Z,97023.84
2018-10-21T06:11:59.572Z,97020.95
2018-10-21T06:14:28.099Z,97028.66
2018-10-21T06:17:01.534Z,97029.70
2018-10-21T06:19:36.060Z,97026.25
2018-10-21T06:22:04.786Z,97024.88
2018-10-21T06:24:33.297Z,97022.95
2018-10-21T06:27:01.834Z,97029.09
2018-10-21T06:29:30.901Z,97035.75
2018-10-21T06:31:59.408Z,97036.83
2018-10-21T06:34:28.838Z,97035.36
2018-10-21T06:36:57.498Z,97033.67
2018-10-21T06:39:26.478Z,97040.80
2018-10-21T06:41:55.139Z,97043.36
2018-10-21T06:44:23.787Z,97048.86
2018-10-21T06:46:52.454Z,97047.94
2018-10-21T06:49:20.968Z,97045.50
2018-10-21T06:51:49.523Z,97041.28
2018-10-21T06:54:18.048Z,97043.91
2018-10-21T06:56:46.829Z,97045.74
2018-10-21T06:59:15.157Z,97032.16
2018-10-21T07:01:43.655Z,97040.98
2018-10-21T07:04:12.203Z,97043.30
2018-10-21T07:06:40.666Z,97043.39
2018-10-21T07:09:09.175Z,97031.29
2018-10-21T07:11:37.674Z,97038.77
2018-10-21T07:14:06.211Z,97031.80
2018-10-21T07:16:34.938Z,97036.55
2018-10-21T07:19:03.270Z,97039.36
2018-10-21T07:21:31.793Z,97045.45
2018-10-21T07:24:00.314Z,97060.88
2018-10-21T07:26:28.831Z,97064.62
2018-10-21T07:28:57.354Z,97065.64
2018-10-21T07:31:25.855Z,97074.88
2018-10-21T07:33:54.371Z,97076.06
2018-10-21T07:36:22.980Z,97078.18
2018-10-21T07:38:51.435Z,97080.73
2018-10-21T07:41:19.938Z,97084.12
2018-10-21T07:43:48.596Z,97087.97
2018-10-21T07:46:17.283Z,97091.89
2018-10-21T07:48:48.430Z,97093.62
2018-10-21T07:51:16.934Z,97098.39
2018-10-21T07:53:45.863Z,97094.46
2018-10-21T07:56:14.370Z,97095.38
2018-10-21T07:58:43.082Z,97098.68
2018-10-21T08:01:11.588Z,97104.35
2018-10-21T08:03:40.120Z,97106.90
2018-10-21T08:06:30.190Z,97109.00
2018-10-21T08:08:58.750Z,97099.25
2018-10-21T08:11:27.242Z,97106.71
2018-10-21T08:13:55.740Z,97092.10
2018-10-21T08:16:24.271Z,97086.88
2018-10-21T08:18:53.425Z,97087.72
2018-10-21T08:21:22.040Z,97099.22
2018-10-21T08:23:51.031Z,97105.62
2018-10-21T08:26:19.521Z,97106.98
2018-10-21T08:28:48.824Z,97103.63
2018-10-21T08:31:17.311Z,97103.16
2018-10-21T08:33:47.327Z,97100.31
2018-10-21T08:36:15.891Z,97090.09
2018-10-21T08:38:46.452Z,97094.92
2018-10-21T08:41:14.942Z,97099.98
2018-10-21T08:43:43.864Z,97095.76
2018-10-21T08:46:12.450Z,97089.73
2018-10-21T08:48:40.923Z,97102.14
2018-10-21T08:51:09.428Z,97104.36
2018-10-21T08:53:37.938Z,97101.80
2018-10-21T08:56:06.481Z,97095.13
2018-10-21T08:58:34.962Z,97099.59
2018-10-21T09:01:03.533Z,97103.55
2018-10-21T09:03:32.016Z,97100.69
2018-10-21T09:06:00.881Z,97099.95
2018-10-21T09:08:29.396Z,97098.47
2018-10-21T09:11:18.388Z,97097.19
2018-10-21T09:13:47.827Z,97095.72
2018-10-21T09:16:16.531Z,97088.87
2018-10-21T09:18:46.190Z,97100.39
2018-10-21T09:21:14.711Z,97103.59
2018-10-21T09:23:43.626Z,97097.83
2018-10-21T09:26:12.186Z,97097.37
2018-10-21T09:28:40.686Z,97107.98
2018-10-21T09:31:09.287Z,97098.45
2018-10-21T09:33:38.022Z,97102.30
2018-10-21T09:36:06.535Z,97099.61
2018-10-21T09:38:35.019Z,97108.69
2018-10-21T09:41:03.541Z,97107.34
2018-10-21T09:43:32.023Z,97104.98
2018-10-21T09:46:00.546Z,97111.91
2018-10-21T09:48:29.059Z,97112.11
2018-10-21T09:50:57.596Z,97113.95
2018-10-21T09:53:26.102Z,97109.38
2018-10-21T09:55:54.587Z,97114.69
2018-10-21T09:58:23.141Z,97118.44
2018-10-21T10:00:56.896Z,97108.60
2018-10-21T10:03:25.695Z,97122.17
2018-10-21T10:05:54.221Z,97122.73
2018-10-21T10:08:22.695Z,97117.70
2018-10-21T10:10:51.199Z,97121.90
2018-10-21T10:13:19.911Z,97120.70
2018-10-21T10:15:48.239Z,97117.03
2018-10-21T10:18:16.743Z,97116.95
2018-10-21T10:20:45.266Z,97110.19
2018-10-21T10:23:13.809Z,97112.27
2018-10-21T10:25:42.274Z,97109.55
2018-10-21T10:28:11.043Z,97101.08
2018-10-21T10:30:39.525Z,97103.58
2018-10-21T10:33:08.070Z,97096.55
2018-10-21T10:35:36.671Z,97083.42
2018-10-21T10:38:05.319Z,97078.05
2018-10-21T10:40:33.812Z,97076.95
2018-10-21T10:43:02.360Z,97069.38
2018-10-21T10:45:31.652Z,97069.89
2018-10-21T10:48:01.024Z,97058.59
2018-10-21T10:50:30.372Z,97061.44
2018-10-21T10:52:59.831Z,97056.05
2018-10-21T10:55:34.070Z,97062.02
2018-10-21T10:58:03.492Z,97066.25
2018-10-21T11:00:31.976Z,97067.47
2018-10-21T11:03:00.489Z,97070.77
2018-10-21T11:05:29.003Z,97065.70
2018-10-21T11:07:57.511Z,97077.00
2018-10-21T11:10:25.998Z,97075.86
2018-10-21T11:12:54.510Z,97068.82
2018-10-21T11:15:23.010Z,97076.80
2018-10-21T11:17:51.523Z,97069.93
2018-10-21T11:20:20.040Z,97071.81
2018-10-21T11:22:48.640Z,97073.26
2018-10-21T11:25:17.139Z,97057.36
2018-10-21T11:27:45.624Z,97059.37
2018-10-21T11:30:14.166Z,97059.05
2018-10-21T11:32:42.688Z,97045.67
2018-10-21T11:35:11.198Z,97054.11
2018-10-21T11:37:46.174Z,97047.68
2018-10-21T11:40:14.831Z,97052.66
2018-10-21T11:42:43.279Z,97053.34
2018-10-21T11:45:12.262Z,97051.11
2018-10-21T11:47:40.746Z,97046.75
2018-10-21T11:50:09.267Z,97049.98
2018-10-21T11:52:37.802Z,97047.76
2018-10-21T11:55:07.388Z,97048.09
2018-10-21T11:57:35.843Z,97047.53
2018-10-21T12:00:04.862Z,97053.66
2018-10-21T12:02:33.359Z,97037.09
2018-10-21T12:05:01.858Z,97046.19
2018-10-21T12:07:30.350Z,97036.87
2018-10-21T12:09:58.865Z,97025.85
2018-10-21T12:12:27.372Z,97033.73
2018-10-21T12:14:55.863Z,97038.31
2018-10-21T12:17:24.354Z,97037.38
2018-10-21T12:19:52.866Z,97035.69
2018-10-21T12:22:22.241Z,97031.67
2018-10-21T12:24:51.639Z,97026.25
2018-10-21T12:27:20.913Z,97023.02
2018-10-21T12:29:50.217Z,97019.27
2018-10-21T12:32:18.712Z,97022.69
2018-10-21T12:34:47.239Z,97009.94
2018-10-21T12:37:15.862Z,97019.20
2018-10-21T12:39:44.458Z,97011.96
2018-10-21T12:42:12.974Z,97019.60
2018-10-21T12:44:41.479Z,97016.20
2018-10-21T12:47:10.015Z,97011.00
2018-10-21T12:49:38.579Z,97017.72
2018-10-21T12:52:07.148Z,97020.44
2018-10-21T12:54:35.911Z,97021.45
2018-10-21T12:57:04.438Z,97021.51
2018-10-21T12:59:32.943Z,97023.79
2018-10-21T13:02:01.442Z,97023.00
2018-10-21T13:04:30.275Z,97024.95
2018-10-21T13:06:58.927Z,97030.03
2018-10-21T13:09:27.410Z,97026.93
2018-10-21T13:11:56.478Z,97027.27
2018-10-21T13:14:24.978Z,97024.95
2018-10-21T13:16:53.494Z,97021.29
2018-10-21T13:19:22.083Z,97019.05
2018-10-21T13:21:50.594Z,97013.14
2018-10-21T13:24:19.095Z,97023.90
2018-10-21T13:26:47.597Z,97016.32
2018-10-21T13:29:16.107Z,97021.67
2018-10-21T13:31:44.591Z,97023.57
2018-10-21T13:34:13.203Z,97029.04
2018-10-21T13:36:41.651Z,97020.55
2018-10-21T13:39:12.547Z,97018.66
2018-10-21T13:41:41.443Z,97022.51
2018-10-21T13:44:10.443Z,97023.39
2018-10-21T13:46:39.879Z,97027.43
2018-10-21T13:52:01.663Z,97023.81
2018-10-21T13:54:30.083Z,97019.97
2018-10-21T13:56:58.645Z,97021.92
2018-10-21T13:59:27.159Z,97022.22
2018-10-21T14:01:55.659Z,97023.34
2018-10-21T14:04:24.228Z,97024.52
2018-10-21T14:06:53.997Z,97024.91
2018-10-21T14:09:23.284Z,97019.78
2018-10-21T14:11:51.771Z,97020.45
2018-10-21T14:14:20.271Z,97025.64
2018-10-21T14:16:48.774Z,97018.88
2018-10-21T14:19:17.264Z,97023.63
2018-10-21T14:21:46.103Z,97022.34
2018-10-21T14:24:14.688Z,97016.97
2018-10-21T14:26:43.125Z,97019.78
2018-10-21T14:29:11.717Z,97025.56
2018-10-21T14:31:40.236Z,97021.66
2018-10-21T14:34:09.250Z,97019.67
2018-10-21T14:36:37.718Z,97027.86
2018-10-21T14:39:09.876Z,97023.55
2018-10-21T14:41:38.619Z,97022.62
2018-10-21T14:44:07.162Z,97019.48
2018-10-21T14:46:36.878Z,97021.44
2018-10-21T14:49:05.823Z,97015.02
2018-10-21T14:51:34.699Z,97019.03
2018-10-21T14:54:03.247Z,97013.73
2018-10-21T14:56:31.734Z,97017.59
2018-10-21T14:59:00.226Z,97018.26
2018-10-21T15:01:28.738Z,97019.86
2018-10-21T15:03:57.248Z,97018.47
2018-10-21T15:06:25.744Z,97018.98
2018-10-21T15:08:54.270Z,97018.15
2018-10-21T15:11:22.771Z,97022.54
2018-10-21T15:13:51.259Z,97021.76
2018-10-21T15:16:19.774Z,97020.69
2018-10-21T15:18:48.855Z,97021.80
2018-10-21T15:21:17.525Z,97019.86
2018-10-21T15:23:47.256Z,97011.94
2018-10-21T15:26:23.110Z,97012.61
2018-10-21T15:28:51.622Z,97016.67
2018-10-21T15:31:20.154Z,97014.83
2018-10-21T15:33:48.795Z,97018.33
2018-10-21T15:36:17.334Z,97013.33
2018-10-21T15:38:47.086Z,97012.82
2018-10-21T15:41:15.598Z,97014.38
2018-10-21T15:43:44.114Z,97019.04
2018-10-21T15:46:12.621Z,97025.77
2018-10-21T15:48:41.142Z,97022.74
2018-10-21T15:51:09.704Z,97027.26
2018-10-21T15:53:38.399Z,97022.36
2018-10-21T15:56:06.995Z,97017.84
2018-10-21T15:58:35.435Z,97029.89
2018-10-21T16:01:03.979Z,97031.62
2018-10-21T16:03:32.462Z,97032.69
2018-10-21T16:06:01.818Z,97031.97
2018-10-21T16:08:30.320Z,97031.97
2018-10-21T16:10:58.828Z,97035.05
2018-10-21T16:13:27.329Z,97042.23
2018-10-21T16:15:56.151Z,97049.83
2018-10-21T16:18:24.847Z,97049.03
2018-10-21T16:20:53.458Z,97053.69
2018-10-21T16:23:21.951Z,97049.14
2018-10-21T16:25:50.506Z,97050.15
2018-10-21T16:28:19.094Z,97052.82
2018-10-21T16:30:47.610Z,97060.25
2018-10-21T16:33:16.118Z,97055.84
2018-10-21T16:35:44.714Z,97056.05
2018-10-21T16:38:13.255Z,97057.55
2018-10-21T16:40:41.729Z,97064.06
2018-10-21T16:43:10.234Z,97063.69
2018-10-21T16:45:38.744Z,97063.34
2018-10-21T16:48:07.326Z,97067.19
2018-10-21T16:50:37.739Z,97064.83
2018-10-21T16:53:04.399Z,97058.20
2018-10-21T16:55:32.914Z,97063.27
2018-10-21T16:58:01.398Z,97069.23
2018-10-21T17:00:30.072Z,97071.01
2018-10-21T17:02:58.909Z,97083.18
2018-10-21T17:05:27.405Z,97069.20
2018-10-21T17:07:55.883Z,97078.25
2018-10-21T17:10:24.888Z,97089.80
2018-10-21T17:12:52.987Z,97095.94
2018-10-21T17:15:21.498Z,97091.84
2018-10-21T17:17:49.991Z,97096.98
2018-10-21T17:20:18.498Z,97092.75
2018-10-21T17:22:46.984Z,97091.42
2018-10-21T17:25:16.049Z,97096.55
2018-10-21T17:27:44.506Z,97098.11
2018-10-21T17:30:15.958Z,97092.53
2018-10-21T17:32:45.327Z,97097.56
2018-10-21T17:35:13.844Z,97098.49
2018-10-21T17:37:42.347Z,97099.78
2018-10-21T17:40:11.965Z,97097.38
2018-10-21T17:42:41.010Z,97102.27
2018-10-21T17:45:12.750Z,97110.86
2018-10-21T17:47:41.347Z,97107.84
2018-10-21T17:50:11.347Z,97104.94
2018-10-21T17:52:39.918Z,97100.25
2018-10-21T17:55:08.513Z,97108.15
2018-10-21T17:57:36.966Z,97107.66
2018-10-21T18:00:06.704Z,97110.23
2018-10-21T18:02:36.069Z,97107.97
2018-10-21T18:05:06.021Z,97109.08
2018-10-21T18:07:34.657Z,97107.44
2018-10-21T18:10:03.195Z,97105.05
2018-10-21T18:12:31.652Z,97103.38
2018-10-21T18:15:00.216Z,97114.41
2018-10-21T18:17:28.714Z,97113.75
2018-10-21T18:19:57.409Z,97111.39
2018-10-21T18:22:26.214Z,97120.05
2018-10-21T18:24:54.716Z,97117.69
2018-10-21T18:27:23.189Z,97119.42
2018-10-21T18:29:52.094Z,97116.41
2018-10-21T18:32:20.579Z,97109.16
2018-10-21T18:34:49.067Z,97107.88
2018-10-21T18:37:17.599Z,97113.59
2018-10-21T18:39:46.030Z,97113.73
2018-10-21T18:42:14.528Z,97117.48
2018-10-21T18:44:43.035Z,97112.45
2018-10-21T18:47:11.538Z,97111.00
2018-10-21T18:49:40.023Z,97110.00
2018-10-21T18:52:08.727Z,97110.11
2018-10-21T18:54:37.205Z,97116.87
2018-10-21T18:57:06.184Z,97107.54
2018-10-21T18:59:34.802Z,97106.42
2018-10-21T19:02:03.346Z,97112.66
2018-10-21T19:04:31.831Z,97113.84
2018-10-21T19:07:00.339Z,97111.72
2018-10-21T19:09:28.858Z,97110.83
2018-10-21T19:11:57.382Z,97111.00
2018-10-21T19:14:25.863Z,97108.35
2018-10-21T19:16:54.371Z,97116.78
2018-10-21T19:19:22.998Z,97120.90
2018-10-21T19:21:51.486Z,97116.90
2018-10-21T19:24:19.980Z,97123.77
2018-10-21T19:26:48.472Z,97123.56
2018-10-21T19:29:16.958Z,97119.47
2018-10-21T19:31:45.438Z,97120.32
2018-10-21T19:34:13.969Z,97117.76
2018-10-21T19:36:42.482Z,97113.43
2018-10-21T19:39:12.215Z,97116.38
2018-10-21T19:41:40.708Z,97121.11
2018-10-21T19:44:10.362Z,97122.39
2018-10-21T19:46:38.929Z,97111.25
2018-10-21T19:49:08.217Z,97128.35
2018-10-21T19:51:36.680Z,97124.06
2018-10-21T19:54:05.752Z,97121.94
2018-10-21T19:56:34.242Z,97123.77
2018-10-21T19:59:04.287Z,97119.30
2018-10-21T20:01:32.834Z,97127.92
2018-10-21T20:04:01.542Z,97123.15
2018-10-21T20:06:31.314Z,97116.11
2018-10-21T20:08:59.840Z,97115.75
2018-10-21T20:11:28.331Z,97113.92
2018-10-21T20:13:56.816Z,97112.64
2018-10-21T20:16:25.313Z,97118.47
2018-10-21T20:18:53.816Z,97112.26
2018-10-21T20:21:22.303Z,97115.66
2018-10-21T20:23:50.806Z,97108.52
2018-10-21T20:26:19.291Z,97116.94
2018-10-21T20:28:48.823Z,97109.70
2018-10-21T20:31:17.470Z,97112.75
2018-10-21T20:33:48.725Z,97116.95
2018-10-21T20:36:17.199Z,97117.39
2018-10-21T20:38:49.222Z,97112.91
2018-10-21T20:41:17.710Z,97111.63
2018-10-21T20:43:46.682Z,97104.96
2018-10-21T20:46:15.251Z,97112.21
2018-10-21T20:48:43.702Z,97119.90
2018-10-21T20:51:12.203Z,97115.67
2018-10-21T20:53:40.686Z,97114.39
2018-10-21T20:56:09.206Z,97114.94
2018-10-21T20:58:37.719Z,97114.84
2018-10-21T21:01:06.717Z,97110.55
2018-10-21T21:03:35.199Z,97109.55
2018-10-21T21:06:03.778Z,97113.21
2018-10-21T21:08:32.262Z,97109.56
2018-10-21T21:11:00.767Z,97115.67
2018-10-21T21:13:30.165Z,97110.45
2018-10-21T21:15:58.849Z,97111.28
2018-10-21T21:18:27.286Z,97110.64
2018-10-21T21:20:56.230Z,97115.22
2018-10-21T21:23:24.711Z,97110.29
2018-10-21T21:25:53.203Z,97111.83
2018-10-21T21:28:21.747Z,97115.22
2018-10-21T21:30:50.219Z,97107.15
2018-10-21T21:33:18.783Z,97109.55
2018-10-21T21:35:47.293Z,97107.09
2018-10-21T21:38:15.786Z,97103.80
2018-10-21T21:40:44.271Z,97104.63
2018-10-21T21:43:12.767Z,97099.56
2018-10-21T21:45:41.269Z,97102.61
2018-10-21T21:48:09.843Z,97092.07
2018-10-21T21:50:38.269Z,97097.04
2018-10-21T21:55:59.967Z,97089.71
2018-10-21T21:58:28.478Z,97082.95
2018-10-21T22:00:57.039Z,97082.57
2018-10-21T22:03:25.531Z,97086.16
2018-10-21T22:05:53.998Z,97083.69
2018-10-21T22:08:22.594Z,97083.88
2018-10-21T22:10:51.091Z,97079.46
2018-10-21T22:13:19.574Z,97074.63
2018-10-21T22:15:48.114Z,97075.98
2018-10-21T22:18:16.745Z,97073.63
2018-10-21T22:20:45.133Z,97071.24
2018-10-21T22:23:13.629Z,97065.76
2018-10-21T22:25:42.214Z,97064.82
2018-10-21T22:28:10.767Z,97066.09
2018-10-21T22:30:39.240Z,97056.30
2018-10-21T22:33:08.232Z,97057.03
2018-10-21T22:35:36.726Z,97049.52
2018-10-21T22:38:06.194Z,97049.56
2018-10-21T22:40:34.660Z,97049.41
2018-10-21T22:43:03.278Z,97046.02
2018-10-21T22:45:31.761Z,97062.53
2018-10-21T22:48:00.292Z,97066.37
2018-10-21T22:50:28.775Z,97066.67
2018-10-21T22:52:57.299Z,97072.20
2018-10-21T22:55:25.806Z,97076.16
2018-10-21T22:57:54.299Z,97083.27
2018-10-21T23:00:22.795Z,97081.08
2018-10-21T23:02:52.107Z,97085.34
2018-10-21T23:05:21.042Z,97082.70
2018-10-21T23:07:49.558Z,97077.69
2018-10-21T23:10:18.406Z,97080.77
2018-10-21T23:12:46.870Z,97086.89
2018-10-21T23:15:15.374Z,97085.61
2018-10-21T23:17:43.874Z,97082.88
2018-10-21T23:20:12.379Z,97083.86
2018-10-21T23:22:41.221Z,97081.34
2018-10-21T23:25:09.726Z,97085.22
2018-10-21T23:27:38.218Z,97085.03
2018-10-21T23:30:07.553Z,97083.90
2018-10-21T23:32:36.071Z,97082.27
2018-10-21T23:35:05.034Z,97083.28
2018-10-21T23:37:33.615Z,97084.70
2018-10-21T23:40:02.199Z,97085.31
2018-10-21T23:42:30.654Z,97084.03
2018-10-21T23:44:59.150Z,97087.95
2018-10-21T23:47:27.668Z,97087.98
2018-10-21T23:49:56.137Z,97089.52
2018-10-21T23:52:24.614Z,97090.22
2018-10-21T23:57:46.128Z,97085.47
